Weather at Portage County Regional Airport

Public forecast

Using degrees Fahrenheit for public forecast. Weather courtesy of forecast.io.

Current aviation weather report (METAR) for Portage County Regional Airport

Retrieved 2020/10/30 04:35 UTC (2 minutes ago):

KPOV 300435Z AUTO 02006KT 10SM SCT007 BKN030 OVC036 07/06 A2977 RMK AO2 T00710059 PWINO

Closest aviation forecast (TAF) to Portage County Regional Airport

Closest forecast is Akron Canton Regional Airport, 19.7 nm (36.4 km) SSW. Retrieved 2020-10-30 00:40 UTC (4 hours ago):

TAF KCAK 292338Z 3000/3024 01006KT P6SM OVC035 TEMPO 3000/3004 3SM -RA BR OVC025 FM300400 01007KT P6SM OVC010 TEMPO 3005/3008 3SM -RA BR OVC008 FM301500 34006KT P6SM -RA OVC008 FM301600 33007KT P6SM OVC010 FM302200 32008KT P6SM BKN030